createdAt,value
2018-04-18T00:00:12.848Z,71.41
2018-04-18T00:02:41.149Z,71.61
2018-04-18T00:05:09.480Z,71.13
2018-04-18T00:07:38.107Z,70.76
2018-04-18T00:10:06.425Z,70.46
2018-04-18T00:12:34.813Z,70.25
2018-04-18T00:15:03.122Z,70.70
2018-04-18T00:17:31.504Z,70.77
2018-04-18T00:19:59.878Z,71.57
2018-04-18T00:22:28.228Z,71.35
2018-04-18T00:24:56.572Z,71.27
2018-04-18T00:27:24.914Z,70.95
2018-04-18T00:29:53.257Z,71.19
2018-04-18T00:32:21.568Z,71.46
2018-04-18T00:34:49.985Z,71.27
2018-04-18T00:37:18.281Z,71.12
2018-04-18T00:39:46.644Z,71.21
2018-04-18T00:42:14.982Z,72.35
2018-04-18T00:44:43.294Z,73.18
2018-04-18T00:47:11.733Z,72.62
2018-04-18T00:49:40.049Z,71.86
2018-04-18T00:52:08.397Z,72.11
2018-04-18T00:54:36.701Z,72.08
2018-04-18T00:57:05.054Z,72.30
2018-04-18T00:59:33.421Z,73.19
2018-04-18T01:02:01.815Z,72.74
2018-04-18T01:04:30.182Z,72.40
2018-04-18T01:06:58.599Z,72.40
2018-04-18T01:09:26.945Z,72.66
2018-04-18T01:11:55.291Z,72.36
2018-04-18T01:14:23.596Z,73.27
2018-04-18T01:16:51.946Z,73.25
2018-04-18T01:19:20.264Z,73.00
2018-04-18T01:21:48.611Z,73.20
2018-04-18T01:24:16.907Z,73.16
2018-04-18T01:26:45.251Z,73.32
2018-04-18T01:29:13.660Z,73.36
2018-04-18T01:31:41.997Z,73.99
2018-04-18T01:34:10.505Z,74.16
2018-04-18T01:36:38.934Z,74.86
2018-04-18T01:39:07.241Z,74.55
2018-04-18T01:41:35.649Z,74.09
2018-04-18T01:44:03.964Z,73.81
2018-04-18T01:46:32.311Z,73.99
2018-04-18T01:49:12.435Z,73.82
2018-04-18T01:51:40.781Z,73.66
2018-04-18T01:54:09.118Z,74.34
2018-04-18T01:56:37.462Z,75.03
2018-04-18T01:59:05.770Z,75.64
2018-04-18T02:01:34.106Z,75.90
2018-04-18T02:04:02.422Z,75.31
2018-04-18T02:06:30.809Z,74.81
2018-04-18T02:08:59.105Z,74.68
2018-04-18T02:11:27.421Z,74.91
2018-04-18T02:13:55.828Z,74.36
2018-04-18T02:16:24.137Z,75.29
2018-04-18T02:18:52.482Z,76.46
2018-04-18T02:21:20.784Z,76.51
2018-04-18T02:23:49.125Z,76.26
2018-04-18T02:26:17.509Z,75.70
2018-04-18T02:28:45.839Z,75.94
2018-04-18T02:31:14.137Z,77.73
2018-04-18T02:33:42.473Z,78.22
2018-04-18T02:36:10.774Z,78.04
2018-04-18T02:38:39.265Z,77.93
2018-04-18T02:41:07.562Z,77.13
2018-04-18T02:43:36.004Z,77.17
2018-04-18T02:46:04.293Z,77.38
2018-04-18T02:48:32.621Z,77.90
2018-04-18T02:51:00.925Z,77.72
2018-04-18T02:53:29.273Z,78.10
2018-04-18T02:55:57.576Z,76.95
2018-04-18T02:58:26.021Z,75.96
2018-04-18T03:00:54.400Z,76.82
2018-04-18T03:03:22.710Z,78.43
2018-04-18T03:05:51.041Z,78.38
2018-04-18T03:08:19.362Z,78.95
2018-04-18T03:10:47.721Z,79.30
2018-04-18T03:13:16.033Z,79.66
2018-04-18T03:15:44.411Z,79.39
2018-04-18T03:18:12.737Z,79.18
2018-04-18T03:20:41.069Z,77.85
2018-04-18T03:23:09.373Z,77.98
2018-04-18T03:25:37.697Z,77.27
2018-04-18T03:28:06.001Z,76.68
2018-04-18T03:30:34.333Z,77.92
2018-04-18T03:33:02.642Z,78.27
2018-04-18T03:35:30.971Z,78.53
2018-04-18T03:38:00.170Z,78.87
2018-04-18T03:40:28.497Z,78.23
2018-04-18T03:42:56.797Z,77.69
2018-04-18T03:45:25.149Z,77.31
2018-04-18T03:47:53.453Z,76.95
2018-04-18T03:50:21.809Z,76.39
2018-04-18T03:52:50.246Z,76.24
2018-04-18T03:55:18.540Z,76.53
2018-04-18T03:57:46.857Z,76.66
2018-04-18T04:00:15.218Z,77.46
2018-04-18T04:02:43.525Z,77.57
2018-04-18T04:05:11.827Z,76.88
2018-04-18T04:07:40.149Z,76.32
2018-04-18T04:10:08.454Z,76.72
2018-04-18T04:12:36.867Z,76.97
2018-04-18T04:15:05.179Z,77.85
2018-04-18T04:17:42.182Z,77.82
2018-04-18T04:20:22.313Z,78.31
2018-04-18T04:23:02.593Z,78.04
2018-04-18T04:25:30.885Z,78.71
2018-04-18T04:27:59.212Z,78.21
2018-04-18T04:30:27.513Z,77.94
2018-04-18T04:32:55.848Z,77.91
2018-04-18T04:35:24.236Z,77.52
2018-04-18T04:37:52.549Z,77.53
2018-04-18T04:40:20.853Z,77.77
2018-04-18T04:42:49.248Z,78.61
2018-04-18T04:45:17.549Z,78.29
2018-04-18T04:47:45.948Z,78.19
2018-04-18T04:50:14.289Z,77.79
2018-04-18T04:52:42.844Z,78.06
2018-04-18T04:55:11.248Z,77.50
2018-04-18T04:57:39.576Z,77.99
2018-04-18T05:00:07.885Z,78.53
2018-04-18T05:02:36.245Z,78.77
2018-04-18T05:05:04.598Z,78.81
2018-04-18T05:07:32.918Z,78.16
2018-04-18T05:10:01.322Z,78.32
2018-04-18T05:12:29.694Z,78.34
2018-04-18T05:14:58.112Z,77.82
2018-04-18T05:17:26.450Z,77.89
2018-04-18T05:19:54.757Z,76.83
2018-04-18T05:22:23.109Z,77.13
2018-04-18T05:24:51.471Z,77.01
2018-04-18T05:27:19.861Z,77.24
2018-04-18T05:29:48.182Z,77.21
2018-04-18T05:32:16.497Z,76.35
2018-04-18T05:34:44.824Z,75.56
2018-04-18T05:37:13.135Z,74.91
2018-04-18T05:39:41.572Z,74.48
2018-04-18T05:42:09.924Z,73.50
2018-04-18T05:44:38.306Z,73.25
2018-04-18T05:47:06.723Z,73.59
2018-04-18T05:49:35.041Z,73.52
2018-04-18T05:52:03.433Z,72.66
2018-04-18T05:54:31.816Z,72.08
2018-04-18T05:57:00.192Z,70.23
2018-04-18T05:59:28.566Z,69.62
2018-04-18T06:01:56.992Z,69.55
2018-04-18T06:04:25.317Z,69.08
2018-04-18T06:06:53.777Z,68.60
2018-04-18T06:09:22.209Z,67.73
2018-04-18T06:11:50.517Z,67.43
2018-04-18T06:14:18.941Z,67.02
2018-04-18T06:16:47.251Z,66.78
2018-04-18T06:19:15.605Z,66.60
2018-04-18T06:21:43.893Z,66.07
2018-04-18T06:24:12.249Z,65.69
2018-04-18T06:26:40.571Z,65.35
2018-04-18T06:29:08.908Z,64.96
2018-04-18T06:31:37.292Z,64.48
2018-04-18T06:34:05.607Z,63.76
2018-04-18T06:36:33.970Z,62.02
2018-04-18T06:39:02.349Z,61.25
2018-04-18T06:41:30.684Z,61.20
2018-04-18T06:43:59.045Z,61.08
2018-04-18T06:46:27.388Z,61.21
2018-04-18T06:48:55.771Z,60.62
2018-04-18T06:51:24.110Z,59.78
2018-04-18T06:53:52.835Z,60.14
2018-04-18T06:56:21.161Z,59.25
2018-04-18T06:58:49.497Z,58.83
2018-04-18T07:01:17.829Z,58.36
2018-04-18T07:03:46.137Z,57.82
2018-04-18T07:06:14.474Z,57.62
2018-04-18T07:08:42.787Z,57.34
2018-04-18T07:11:11.182Z,56.94
2018-04-18T07:13:39.454Z,56.43
2018-04-18T07:16:07.785Z,55.89
2018-04-18T07:18:36.122Z,55.22
2018-04-18T07:21:04.468Z,54.44
2018-04-18T07:23:32.833Z,55.01
2018-04-18T07:26:01.243Z,54.71
2018-04-18T07:28:29.582Z,54.16
2018-04-18T07:30:57.973Z,54.05
2018-04-18T07:33:26.346Z,53.99
2018-04-18T07:35:54.668Z,54.19
2018-04-18T07:38:22.997Z,53.70
2018-04-18T07:40:51.377Z,53.77
2018-04-18T07:43:19.754Z,54.08
2018-04-18T07:45:48.069Z,53.59
2018-04-18T07:48:16.401Z,53.91
2018-04-18T07:50:44.785Z,53.22
2018-04-18T07:53:13.121Z,52.68
2018-04-18T07:55:41.434Z,52.53
2018-04-18T07:58:09.774Z,53.59
2018-04-18T08:00:38.093Z,52.65
2018-04-18T08:03:06.468Z,52.25
2018-04-18T08:05:34.768Z,52.32
2018-04-18T08:08:03.125Z,52.07
2018-04-18T08:10:31.433Z,51.90
2018-04-18T08:12:59.737Z,50.58
2018-04-18T08:15:28.220Z,51.27
2018-04-18T08:17:56.524Z,51.03
2018-04-18T08:20:24.872Z,50.30
2018-04-18T08:22:53.173Z,50.47
2018-04-18T08:25:21.518Z,50.22
2018-04-18T08:27:57.827Z,50.07
2018-04-18T08:30:26.205Z,49.94
2018-04-18T08:32:54.589Z,51.04
2018-04-18T08:35:22.921Z,51.47
2018-04-18T08:37:51.232Z,52.01
2018-04-18T08:40:19.584Z,51.14
2018-04-18T08:42:48.498Z,50.69
2018-04-18T08:45:16.845Z,49.75
2018-04-18T08:47:45.154Z,49.86
2018-04-18T08:50:13.493Z,48.84
2018-04-18T08:52:41.794Z,48.75
2018-04-18T08:55:10.145Z,48.11
2018-04-18T08:57:38.481Z,47.67
2018-04-18T09:00:06.801Z,48.20
2018-04-18T09:02:35.130Z,47.06
2018-04-18T09:05:03.454Z,46.00
2018-04-18T09:07:31.775Z,46.32
2018-04-18T09:10:00.086Z,46.20
2018-04-18T09:12:28.475Z,46.50
2018-04-18T09:14:56.777Z,46.29
2018-04-18T09:17:25.109Z,44.97
2018-04-18T09:19:53.462Z,43.86
2018-04-18T09:22:21.801Z,45.59
2018-04-18T09:24:50.113Z,45.27
2018-04-18T09:27:18.452Z,44.86
2018-04-18T09:29:46.768Z,45.10
2018-04-18T09:32:15.100Z,45.52
2018-04-18T09:34:43.425Z,43.59
2018-04-18T09:37:11.766Z,40.37
2018-04-18T09:39:40.119Z,41.22
2018-04-18T09:42:08.436Z,40.06
2018-04-18T09:44:36.776Z,41.27
2018-04-18T09:47:05.117Z,42.31
2018-04-18T09:49:33.456Z,42.41
2018-04-18T09:52:01.772Z,43.08
2018-04-18T09:54:30.093Z,42.86
2018-04-18T09:56:58.429Z,42.28
2018-04-18T09:59:26.769Z,42.29
2018-04-18T10:01:55.081Z,42.67
2018-04-18T10:04:29.357Z,42.44
2018-04-18T10:06:57.670Z,42.60
2018-04-18T10:09:26.009Z,42.92
2018-04-18T10:11:54.317Z,42.31
2018-04-18T10:14:22.661Z,41.87
2018-04-18T10:16:50.985Z,42.71
2018-04-18T10:19:19.357Z,43.23
2018-04-18T10:21:47.661Z,41.73
2018-04-18T10:24:15.997Z,40.52
2018-04-18T10:26:44.306Z,40.73
2018-04-18T10:29:12.656Z,37.41
2018-04-18T10:31:41.001Z,35.74
2018-04-18T10:34:09.465Z,35.32
2018-04-18T10:36:37.776Z,35.82
2018-04-18T10:39:06.879Z,34.68
2018-04-18T10:41:35.200Z,34.73
2018-04-18T10:44:03.521Z,34.19
2018-04-18T10:46:31.852Z,33.84
2018-04-18T10:49:00.180Z,33.92
2018-04-18T10:51:28.510Z,34.09
2018-04-18T10:53:56.897Z,33.36
2018-04-18T10:56:25.237Z,31.61
2018-04-18T10:58:53.658Z,31.16
2018-04-18T11:01:22.010Z,31.95
2018-04-18T11:03:50.369Z,33.78
2018-04-18T11:06:18.717Z,33.52
2018-04-18T11:08:47.067Z,31.00
2018-04-18T11:11:15.383Z,32.46
2018-04-18T11:13:44.461Z,32.41
2018-04-18T11:16:12.799Z,31.19
2018-04-18T11:18:41.144Z,31.78
2018-04-18T11:21:09.441Z,31.80
2018-04-18T11:23:37.761Z,30.93
2018-04-18T11:26:06.103Z,30.49
2018-04-18T11:28:34.465Z,29.92
2018-04-18T11:31:02.823Z,27.86
2018-04-18T11:33:31.136Z,26.84
2018-04-18T11:35:59.468Z,27.46
2018-04-18T11:38:27.880Z,26.49
2018-04-18T11:40:56.274Z,25.09
2018-04-18T11:43:24.577Z,25.52
2018-04-18T11:45:52.912Z,26.56
2018-04-18T11:48:21.226Z,27.15
2018-04-18T11:50:49.707Z,26.96
2018-04-18T11:53:18.001Z,26.96
2018-04-18T11:55:46.345Z,26.10
2018-04-18T11:58:14.694Z,26.86
2018-04-18T12:00:43.014Z,26.06
2018-04-18T12:03:11.496Z,21.80
2018-04-18T12:05:39.793Z,21.76
2018-04-18T12:08:08.222Z,21.46
2018-04-18T12:10:36.593Z,20.34
2018-04-18T12:13:04.936Z,19.20
2018-04-18T12:15:33.240Z,20.32
2018-04-18T12:18:01.577Z,21.93
2018-04-18T12:20:29.902Z,21.31
2018-04-18T12:22:58.230Z,22.22
2018-04-18T12:25:26.549Z,22.05
2018-04-18T12:27:54.929Z,21.28
2018-04-18T12:30:23.306Z,20.75
2018-04-18T12:32:51.687Z,19.75
2018-04-18T12:35:19.998Z,21.56
2018-04-18T12:37:48.382Z,20.26
2018-04-18T12:40:16.864Z,20.66
2018-04-18T12:42:45.300Z,20.78
2018-04-18T12:45:13.625Z,21.85
2018-04-18T12:47:41.998Z,23.77
2018-04-18T12:50:10.375Z,23.72
2018-04-18T12:52:38.775Z,22.58
2018-04-18T12:55:07.073Z,22.11
2018-04-18T12:57:35.536Z,22.23
2018-04-18T13:00:03.806Z,22.57
2018-04-18T13:02:32.125Z,22.73
2018-04-18T13:05:00.464Z,21.15
2018-04-18T13:07:28.767Z,20.84
2018-04-18T13:09:57.154Z,21.62
2018-04-18T13:12:25.495Z,21.76
2018-04-18T13:14:53.826Z,21.14
2018-04-18T13:17:22.136Z,20.14
2018-04-18T13:19:50.540Z,20.27
2018-04-18T13:22:19.004Z,20.66
2018-04-18T13:27:10.442Z,20.36
2018-04-18T13:29:38.903Z,21.05
2018-04-18T13:32:07.225Z,20.84
2018-04-18T13:34:35.552Z,20.62
2018-04-18T13:37:03.876Z,20.17
2018-04-18T13:39:32.308Z,21.25
2018-04-18T13:42:00.631Z,21.12
2018-04-18T13:44:29.027Z,21.03
2018-04-18T13:46:57.418Z,20.81
2018-04-18T13:49:25.798Z,21.40
2018-04-18T13:51:54.172Z,20.99
2018-04-18T13:54:22.505Z,20.57
2018-04-18T13:56:50.873Z,19.97
2018-04-18T13:59:19.261Z,20.05
2018-04-18T14:01:47.673Z,19.84
2018-04-18T14:04:16.060Z,19.12
2018-04-18T14:06:44.432Z,19.88
2018-04-18T14:09:12.766Z,19.66
2018-04-18T14:11:41.189Z,18.63
2018-04-18T14:14:09.557Z,18.54
2018-04-18T14:16:37.899Z,18.20
2018-04-18T14:19:06.261Z,19.22
2018-04-18T14:21:34.593Z,19.33
2018-04-18T14:24:02.914Z,19.13
2018-04-18T14:26:31.258Z,18.53
2018-04-18T14:28:59.559Z,18.60
2018-04-18T14:31:27.906Z,18.33
2018-04-18T14:33:56.226Z,18.26
2018-04-18T14:36:24.570Z,17.91
2018-04-18T14:38:52.884Z,18.38
2018-04-18T14:41:21.221Z,17.58
2018-04-18T14:43:49.557Z,17.82
2018-04-18T14:46:17.869Z,17.67
2018-04-18T14:48:46.248Z,16.65
2018-04-18T14:51:14.670Z,16.82
2018-04-18T14:53:43.002Z,16.35
2018-04-18T14:56:11.388Z,17.35
2018-04-18T14:58:39.758Z,16.38
2018-04-18T15:01:08.155Z,16.11
2018-04-18T15:03:36.471Z,15.47
2018-04-18T15:06:04.797Z,15.83
2018-04-18T15:08:33.134Z,15.64
2018-04-18T15:11:01.457Z,15.82
2018-04-18T15:13:29.792Z,15.44
2018-04-18T15:15:58.110Z,15.41
2018-04-18T15:18:26.433Z,16.79
2018-04-18T15:20:54.805Z,17.10
2018-04-18T15:23:23.154Z,16.14
2018-04-18T15:25:51.485Z,15.51
2018-04-18T15:28:19.913Z,15.51
2018-04-18T15:30:48.162Z,16.25
2018-04-18T15:33:16.544Z,16.31
2018-04-18T15:35:44.882Z,16.93
2018-04-18T15:38:13.195Z,15.82
2018-04-18T15:40:41.537Z,18.41
2018-04-18T15:43:10.003Z,17.68
2018-04-18T15:45:38.325Z,17.04
2018-04-18T15:48:06.734Z,17.47
2018-04-18T15:50:35.093Z,17.35
2018-04-18T15:53:03.429Z,17.73
2018-04-18T15:55:31.762Z,18.58
2018-04-18T15:58:00.172Z,17.43
2018-04-18T16:00:28.648Z,17.66
2018-04-18T16:02:56.945Z,17.09
2018-04-18T16:05:25.296Z,17.79
2018-04-18T16:07:53.673Z,17.89
2018-04-18T16:10:22.010Z,18.27
2018-04-18T16:12:50.444Z,18.76
2018-04-18T16:15:18.819Z,18.63
2018-04-18T16:17:47.173Z,18.67
2018-04-18T16:20:15.506Z,19.29
2018-04-18T16:22:43.848Z,18.22
2018-04-18T16:25:12.164Z,17.94
2018-04-18T16:27:40.566Z,18.30
2018-04-18T16:33:13.824Z,18.52
2018-04-18T16:35:42.141Z,18.00
2018-04-18T16:38:10.521Z,18.23
2018-04-18T16:40:38.845Z,17.77
2018-04-18T16:43:07.339Z,18.05
2018-04-18T16:45:35.728Z,17.95
2018-04-18T16:48:04.073Z,19.50
2018-04-18T16:50:32.429Z,18.31
2018-04-18T16:53:00.781Z,20.23
2018-04-18T16:55:29.109Z,20.91
2018-04-18T16:57:57.455Z,21.74
2018-04-18T17:00:25.793Z,22.14
2018-04-18T17:02:54.137Z,21.32
2018-04-18T17:05:22.459Z,24.03
2018-04-18T17:07:50.914Z,24.12
2018-04-18T17:10:19.249Z,24.91
2018-04-18T17:12:47.701Z,25.93
2018-04-18T17:15:16.040Z,25.67
2018-04-18T17:17:44.358Z,26.33
2018-04-18T17:20:12.769Z,26.14
2018-04-18T17:22:41.281Z,26.52
2018-04-18T17:25:09.653Z,26.28
2018-04-18T17:27:37.953Z,26.64
2018-04-18T17:30:06.381Z,26.94
2018-04-18T17:32:34.769Z,26.74
2018-04-18T17:35:03.104Z,26.99
2018-04-18T17:37:31.448Z,27.32
2018-04-18T17:39:59.808Z,27.40
2018-04-18T17:42:28.140Z,27.50
2018-04-18T17:44:56.500Z,28.32
2018-04-18T17:47:24.923Z,28.34
2018-04-18T17:49:53.313Z,28.42
2018-04-18T17:52:21.680Z,28.66
2018-04-18T17:54:50.095Z,29.28
2018-04-18T17:57:18.396Z,29.76
2018-04-18T17:59:46.820Z,29.99
2018-04-18T18:02:15.191Z,30.22
2018-04-18T18:04:43.586Z,30.79
2018-04-18T18:07:11.917Z,31.09
2018-04-18T18:09:40.260Z,31.24
2018-04-18T18:12:08.612Z,31.85
2018-04-18T18:14:36.960Z,32.09
2018-04-18T18:17:05.305Z,32.50
2018-04-18T18:19:33.642Z,32.30
2018-04-18T18:22:01.964Z,32.24
2018-04-18T18:24:30.336Z,33.39
2018-04-18T18:26:58.659Z,33.48
2018-04-18T18:29:27.050Z,33.91
2018-04-18T18:31:55.401Z,34.46
2018-04-18T18:34:23.770Z,34.14
2018-04-18T18:36:52.171Z,34.28
2018-04-18T18:39:20.501Z,34.17
2018-04-18T18:41:48.889Z,34.43
2018-04-18T18:44:17.208Z,35.29
2018-04-18T18:46:45.581Z,35.26
2018-04-18T18:49:13.980Z,35.70
2018-04-18T18:51:42.337Z,35.89
2018-04-18T18:54:10.673Z,36.71
2018-04-18T18:56:39.013Z,36.57
2018-04-18T18:59:07.336Z,36.80
2018-04-18T19:01:35.748Z,36.68
2018-04-18T19:04:04.089Z,37.10
2018-04-18T19:06:32.513Z,37.38
2018-04-18T19:09:00.827Z,37.92
2018-04-18T19:11:29.265Z,38.26
2018-04-18T19:13:57.648Z,38.69
2018-04-18T19:16:26.000Z,38.45
2018-04-18T19:18:54.390Z,38.45
2018-04-18T19:21:22.790Z,38.24
2018-04-18T19:23:51.163Z,38.42
2018-04-18T19:26:19.542Z,38.92
2018-04-18T19:28:47.914Z,39.12
2018-04-18T19:31:16.245Z,39.10
2018-04-18T19:33:44.601Z,39.67
2018-04-18T19:36:12.909Z,40.07
2018-04-18T19:38:41.256Z,40.18
2018-04-18T19:41:09.587Z,40.58
2018-04-18T19:43:37.961Z,40.88
2018-04-18T19:46:06.289Z,40.93
2018-04-18T19:48:34.629Z,41.42
2018-04-18T19:51:02.957Z,41.61
2018-04-18T19:53:31.306Z,41.89
2018-04-18T19:55:59.647Z,42.18
2018-04-18T19:58:27.990Z,42.18
2018-04-18T20:00:56.309Z,42.21
2018-04-18T20:03:24.649Z,42.52
2018-04-18T20:05:53.124Z,42.98
2018-04-18T20:08:21.470Z,42.87
2018-04-18T20:10:49.794Z,42.96
2018-04-18T20:13:18.186Z,42.88
2018-04-18T20:15:46.509Z,42.65
2018-04-18T20:18:14.824Z,42.54
2018-04-18T20:20:43.210Z,41.70
2018-04-18T20:23:11.633Z,42.17
2018-04-18T20:25:39.991Z,42.74
2018-04-18T20:28:08.325Z,43.07
2018-04-18T20:30:36.730Z,42.92
2018-04-18T20:33:05.136Z,43.03
2018-04-18T20:35:33.481Z,43.04
2018-04-18T20:38:01.852Z,42.58
2018-04-18T20:40:30.191Z,42.49
2018-04-18T20:42:58.514Z,42.80
2018-04-18T20:45:26.925Z,42.89
2018-04-18T20:47:55.237Z,43.26
2018-04-18T20:50:23.585Z,43.36
2018-04-18T20:52:51.929Z,43.55
2018-04-18T20:55:20.285Z,43.62
2018-04-18T20:57:48.609Z,44.06
2018-04-18T21:00:16.996Z,43.96
2018-04-18T21:02:45.316Z,45.17
2018-04-18T21:05:13.654Z,44.87
2018-04-18T21:07:41.970Z,45.09
2018-04-18T21:10:10.313Z,44.92
2018-04-18T21:12:38.686Z,45.02
2018-04-18T21:15:07.005Z,45.11
2018-04-18T21:17:35.394Z,45.00
2018-04-18T21:20:03.718Z,44.91
2018-04-18T21:22:32.061Z,45.29
2018-04-18T21:25:00.365Z,46.13
2018-04-18T21:27:28.793Z,45.29
2018-04-18T21:29:57.090Z,45.56
2018-04-18T21:32:25.454Z,46.21
2018-04-18T21:34:53.757Z,45.80
2018-04-18T21:37:22.113Z,45.50
2018-04-18T21:39:50.451Z,45.79
2018-04-18T21:42:18.789Z,46.12
2018-04-18T21:44:47.109Z,46.60
2018-04-18T21:47:15.488Z,46.90
2018-04-18T21:49:43.800Z,46.64
2018-04-18T21:52:12.130Z,47.17
2018-04-18T21:54:40.502Z,48.06
2018-04-18T21:57:08.829Z,48.43
2018-04-18T21:59:37.206Z,48.89
2018-04-18T22:02:05.550Z,48.80
2018-04-18T22:04:33.901Z,48.16
2018-04-18T22:07:02.289Z,48.37
2018-04-18T22:09:30.625Z,48.27
2018-04-18T22:11:58.944Z,49.02
2018-04-18T22:14:27.325Z,49.56
2018-04-18T22:16:55.759Z,49.57
2018-04-18T22:19:24.097Z,49.50
2018-04-18T22:21:52.430Z,49.33
2018-04-18T22:24:20.769Z,49.26
2018-04-18T22:26:49.113Z,49.69
2018-04-18T22:29:17.515Z,49.85
2018-04-18T22:31:45.860Z,50.31
2018-04-18T22:34:14.236Z,50.49
2018-04-18T22:36:42.563Z,51.02
2018-04-18T22:39:10.906Z,50.60
2018-04-18T22:41:39.225Z,51.35
2018-04-18T22:44:07.562Z,51.98
2018-04-18T22:46:35.877Z,52.71
2018-04-18T22:49:04.306Z,52.80
2018-04-18T22:51:32.625Z,52.90
2018-04-18T22:54:00.966Z,53.21
2018-04-18T22:56:29.338Z,52.78
2018-04-18T22:58:57.699Z,52.63
2018-04-18T23:01:26.022Z,52.54
2018-04-18T23:03:54.417Z,52.67
2018-04-18T23:06:22.753Z,52.70
2018-04-18T23:08:51.078Z,53.08
2018-04-18T23:11:19.413Z,52.90
2018-04-18T23:13:47.790Z,53.22
2018-04-18T23:16:16.122Z,53.76
2018-04-18T23:18:44.439Z,53.44
2018-04-18T23:21:12.785Z,53.87
2018-04-18T23:23:41.198Z,54.19
2018-04-18T23:26:09.541Z,53.95
2018-04-18T23:28:37.869Z,54.57
2018-04-18T23:31:06.232Z,55.25
2018-04-18T23:33:34.540Z,55.24
2018-04-18T23:36:02.888Z,55.09
2018-04-18T23:38:31.213Z,54.81
2018-04-18T23:40:59.541Z,55.03
2018-04-18T23:43:27.913Z,55.08
2018-04-18T23:45:56.241Z,54.89
2018-04-18T23:48:24.581Z,54.78
2018-04-18T23:50:52.913Z,55.49
2018-04-18T23:53:21.337Z,55.67
2018-04-18T23:55:49.655Z,55.61
2018-04-18T23:58:18.001Z,55.60
